LSZL Airport Information

Runway Information
Runway 08C Length 2297 ft width 98 ft
Elevation 0 ft Threshold 0 ft Heading 0
Runway 26C Length 2297 ft Width 98 ft
Elevation 0 ft Threshold 0 ft Heading 0
Runway 08L Length 2625 ft width 75 ft
Elevation 650 ft Threshold 0 ft Heading 0
Runway 26R Length 2625 ft Width 75 ft
Elevation 650 ft Threshold 0 ft Heading 0
Airport Frequencies
Airport Navaids
Airport Weather Information & NOTAM
ADDS - METARS form results

(0259 UTC 14 November 2018)
Data provider http://aviationweather.gov/metar/data/
 
METAR text: LSZL 140250Z AUTO VRB01KT 1100NDV R08/1500VP2000U R26/0800VP2000U FG FEW002 06/05 Q1029 RMK
Conditions at: LSZL (LOCARNO , CH) observed 0250 UTC 14 November 2018
Temperature: 6.0°C (43°F)
Dewpoint: 5.0°C (41°F) [RH = 93%]
Pressure (altimeter): 30.38 inches Hg (1029.0 mb)
Winds: variable direction winds at 1 MPH (1 knots; 0.5 m/s)
Visibility: missing
Ceiling: at least 12,000 feet AGL
Clouds: few clouds at 200 feet AGL
Weather: FG  (fog)

METAR text: LSZL 140220Z AUTO 00000KT 0350NDV R08/0325V0550U R26/0500V0800U FG FEW001 06/06 Q1029 RMK
Conditions at: LSZL (LOCARNO , CH) observed 0220 UTC 14 November 2018
Temperature: 6.0°C (43°F)
Dewpoint: 6.0°C (43°F) [RH = 100%]
Pressure (altimeter): 30.38 inches Hg (1029.0 mb)
Winds: calm
Visibility: missing
Ceiling: at least 12,000 feet AGL
Clouds: few clouds at 100 feet AGL
Weather: FG  (fog)

Forecast for: LSZL (LOCARNO , CH)
Text: TAF LSZL 140225Z 1403/1412 VRB01KT 0600 FG VV003
Forecast period: 0300 to 0600 UTC 14 November 2018
Forecast type: FROM: standard forecast or significant change
Winds: variable direction winds at 1 MPH (1 knots; 0.5 m/s)
Visibility: 0.37 miles (0.60 km)
Ceiling: indefinite ceiling with vertical visibility of 300 feet AGL
Clouds: obscured sky
Weather: FG  (fog)
Text: PROB30 1403/1406 0200 VV001
Forecast period: 0300 to 0600 UTC 14 November 2018
Forecast type: PROBABLE: 30 percent likelihood of the following during this time
Visibility: 0.12 miles (0.19 km)
Ceiling: indefinite ceiling with vertical visibility of 100 feet AGL
Clouds: obscured sky
Weather: no significant weather forecast for this period
Text: BECMG 1406/1408 4000 BR FEW003
Forecast period: 0600 to 0800 UTC 14 November 2018
Forecast type: BECOMING: Conditions expected to become as follows by 0800 UTC 14 November 2018
Winds: variable direction winds at 1 MPH (1 knots; 0.5 m/s)
Visibility: 2.49 miles (4.01 km)
Ceiling: at least 12,000 feet AGL
Clouds: few clouds at 300 feet AGL
Weather: BR  (mist)
Text: BECMG 1408/1410 CAVOK
Forecast period: 0800 to 1200 UTC 14 November 2018
Forecast type: BECOMING: Conditions expected to become as follows by 1000 UTC 14 November 2018
Winds: variable direction winds at 1 MPH (1 knots; 0.5 m/s)
Visibility: 6 or more miles 10+ km)
Ceiling: unknown
Clouds: missing
Weather: NSW  (no significant weather)